Ellenburg, New York
Current Conditions -  °F | °C
As of 4:53 PM on Thursday 23 Oct 2014 (Local Time) from KPBG Reporting Station
Light Rain Light Rain  
Wind Chill: 37°   Ceiling: 1000
Heat Index: 45°   Visibility: 10mi
Dew Point: 43°   Wind: 20mph
Humidity: 93%   Direction: 360°N
Pressure: 29.94"   Gusts: NA
Location:  44.89°N, 73.84°W
Report Text: KPBG 232053Z AUTO 36017KT 10SM -RA OVC010 07/06 A2994 RMK AO2 SLP140 P0004 60022 T00720061 56006
Loading
Personal Weather Stations






























Interactive Weather Map
Tropical Storm Tracking
New forecast layout! Learn more

10-Day Weather Forecast

Advertisements
Track Severe Weather on mobile